sensor_id;sensor_type;location;lat;lon;timestamp;pressure;altitude;pressure_sealevel;temperature
7389;BMP180;3735;50.136;11.062;2022-12-29T00:01:33;97597.00;;;9.20
7389;BMP180;3735;50.136;11.062;2022-12-29T00:04:00;97597.00;;;9.10
7389;BMP180;3735;50.136;11.062;2022-12-29T00:06:26;97591.00;;;9.00
7389;BMP180;3735;50.136;11.062;2022-12-29T00:08:52;97588.00;;;8.90
7389;BMP180;3735;50.136;11.062;2022-12-29T00:11:22;97591.00;;;8.80
7389;BMP180;3735;50.136;11.062;2022-12-29T00:13:49;97602.00;;;8.60
7389;BMP180;3735;50.136;11.062;2022-12-29T00:16:34;97592.00;;;8.40
7389;BMP180;3735;50.136;11.062;2022-12-29T00:19:01;97601.00;;;8.40
7389;BMP180;3735;50.136;11.062;2022-12-29T00:21:28;97596.00;;;8.40
7389;BMP180;3735;50.136;11.062;2022-12-29T00:24:17;97584.00;;;8.50
7389;BMP180;3735;50.136;11.062;2022-12-29T00:27:08;97560.00;;;8.60
7389;BMP180;3735;50.136;11.062;2022-12-29T00:29:53;97580.00;;;8.50
7389;BMP180;3735;50.136;11.062;2022-12-29T00:32:37;97562.00;;;8.50
7389;BMP180;3735;50.136;11.062;2022-12-29T00:35:38;97552.00;;;8.50
7389;BMP180;3735;50.136;11.062;2022-12-29T00:38:07;97546.00;;;8.50
7389;BMP180;3735;50.136;11.062;2022-12-29T00:40:52;97555.00;;;8.40
7389;BMP180;3735;50.136;11.062;2022-12-29T00:43:36;97539.00;;;8.50
7389;BMP180;3735;50.136;11.062;2022-12-29T00:46:20;97536.00;;;8.50
7389;BMP180;3735;50.136;11.062;2022-12-29T00:48:46;97533.00;;;8.60
7389;BMP180;3735;50.136;11.062;2022-12-29T00:51:30;97535.00;;;8.70
7389;BMP180;3735;50.136;11.062;2022-12-29T00:53:56;97526.00;;;8.80
7389;BMP180;3735;50.136;11.062;2022-12-29T00:56:22;97533.00;;;8.80
7389;BMP180;3735;50.136;11.062;2022-12-29T00:58:47;97523.00;;;8.90
7389;BMP180;3735;50.136;11.062;2022-12-29T01:01:13;97527.00;;;9.00
7389;BMP180;3735;50.136;11.062;2022-12-29T01:03:39;97529.00;;;9.10
7389;BMP180;3735;50.136;11.062;2022-12-29T01:06:08;97520.00;;;9.10
7389;BMP180;3735;50.136;11.062;2022-12-29T01:08:34;97531.00;;;9.20
7389;BMP180;3735;50.136;11.062;2022-12-29T01:13:31;97521.00;;;9.30
7389;BMP180;3735;50.136;11.062;2022-12-29T01:15:56;97525.00;;;9.40
7389;BMP180;3735;50.136;11.062;2022-12-29T01:18:23;97536.00;;;9.40
7389;BMP180;3735;50.136;11.062;2022-12-29T01:20:50;97516.00;;;9.40
7389;BMP180;3735;50.136;11.062;2022-12-29T01:23:16;97518.00;;;9.40
7389;BMP180;3735;50.136;11.062;2022-12-29T01:25:42;97509.00;;;9.50
7389;BMP180;3735;50.136;11.062;2022-12-29T01:28:08;97493.00;;;9.60
7389;BMP180;3735;50.136;11.062;2022-12-29T01:30:36;97515.00;;;9.90
7389;BMP180;3735;50.136;11.062;2022-12-29T01:33:02;97503.00;;;9.80
7389;BMP180;3735;50.136;11.062;2022-12-29T01:35:28;97481.00;;;9.90
7389;BMP180;3735;50.136;11.062;2022-12-29T01:37:54;97503.00;;;10.00
7389;BMP180;3735;50.136;11.062;2022-12-29T01:40:20;97472.00;;;10.10
7389;BMP180;3735;50.136;11.062;2022-12-29T01:42:46;97475.00;;;10.20
7389;BMP180;3735;50.136;11.062;2022-12-29T01:45:15;97481.00;;;10.20
7389;BMP180;3735;50.136;11.062;2022-12-29T01:48:02;97495.00;;;10.20
7389;BMP180;3735;50.136;11.062;2022-12-29T01:50:34;97475.00;;;10.30
7389;BMP180;3735;50.136;11.062;2022-12-29T01:53:18;97489.00;;;10.30
7389;BMP180;3735;50.136;11.062;2022-12-29T01:55:51;97491.00;;;10.30
7389;BMP180;3735;50.136;11.062;2022-12-29T01:58:22;97491.00;;;10.20
7389;BMP180;3735;50.136;11.062;2022-12-29T02:00:50;97491.00;;;10.30
7389;BMP180;3735;50.136;11.062;2022-12-29T02:03:19;97486.00;;;10.20
7389;BMP180;3735;50.136;11.062;2022-12-29T02:05:57;97503.00;;;10.20
7389;BMP180;3735;50.136;11.062;2022-12-29T02:08:28;97495.00;;;10.10
7389;BMP180;3735;50.136;11.062;2022-12-29T02:10:56;97505.00;;;10.10
7389;BMP180;3735;50.136;11.062;2022-12-29T02:13:25;97509.00;;;10.00
7389;BMP180;3735;50.136;11.062;2022-12-29T02:37:05;97483.00;;;9.80
7389;BMP180;3735;50.136;11.062;2022-12-29T02:42:38;97490.00;;;10.00
7389;BMP180;3735;50.136;11.062;2022-12-29T02:45:32;97486.00;;;10.10
7389;BMP180;3735;50.136;11.062;2022-12-29T02:51:04;97490.00;;;10.00
7389;BMP180;3735;50.136;11.062;2022-12-29T02:53:34;97489.00;;;10.10
7389;BMP180;3735;50.136;11.062;2022-12-29T02:56:21;97488.00;;;10.10
7389;BMP180;3735;50.136;11.062;2022-12-29T02:58:47;97486.00;;;10.10
7389;BMP180;3735;50.136;11.062;2022-12-29T03:01:29;97480.00;;;10.10
7389;BMP180;3735;50.136;11.062;2022-12-29T03:04:38;97490.00;;;10.10
7389;BMP180;3735;50.136;11.062;2022-12-29T03:10:15;97476.00;;;10.10
7389;BMP180;3735;50.136;11.062;2022-12-29T03:15:50;97470.00;;;10.20
7389;BMP180;3735;50.136;11.062;2022-12-29T03:18:41;97478.00;;;10.30
7389;BMP180;3735;50.136;11.062;2022-12-29T03:24:45;97473.00;;;10.50
7389;BMP180;3735;50.136;11.062;2022-12-29T03:27:18;97471.00;;;10.50
7389;BMP180;3735;50.136;11.062;2022-12-29T03:29:54;97467.00;;;10.50
7389;BMP180;3735;50.136;11.062;2022-12-29T03:32:26;97457.00;;;10.40
7389;BMP180;3735;50.136;11.062;2022-12-29T03:34:54;97472.00;;;10.30
7389;BMP180;3735;50.136;11.062;2022-12-29T03:37:30;97464.00;;;10.20
7389;BMP180;3735;50.136;11.062;2022-12-29T03:39:57;97476.00;;;10.20
7389;BMP180;3735;50.136;11.062;2022-12-29T03:42:26;97493.00;;;10.20
7389;BMP180;3735;50.136;11.062;2022-12-29T03:44:56;97497.00;;;10.20
7389;BMP180;3735;50.136;11.062;2022-12-29T03:47:23;97498.00;;;10.10
7389;BMP180;3735;50.136;11.062;2022-12-29T03:49:50;97494.00;;;10.00
7389;BMP180;3735;50.136;11.062;2022-12-29T03:52:16;97496.00;;;9.80
7389;BMP180;3735;50.136;11.062;2022-12-29T03:54:42;97500.00;;;9.70
7389;BMP180;3735;50.136;11.062;2022-12-29T03:57:10;97490.00;;;9.70
7389;BMP180;3735;50.136;11.062;2022-12-29T03:59:36;97481.00;;;9.50
7389;BMP180;3735;50.136;11.062;2022-12-29T04:02:02;97491.00;;;9.60
7389;BMP180;3735;50.136;11.062;2022-12-29T04:04:28;97486.00;;;9.60
7389;BMP180;3735;50.136;11.062;2022-12-29T04:06:53;97496.00;;;9.60
7389;BMP180;3735;50.136;11.062;2022-12-29T04:09:19;97492.00;;;9.60
7389;BMP180;3735;50.136;11.062;2022-12-29T04:11:45;97496.00;;;9.60
7389;BMP180;3735;50.136;11.062;2022-12-29T04:14:11;97500.00;;;9.50
7389;BMP180;3735;50.136;11.062;2022-12-29T04:16:36;97489.00;;;9.50
7389;BMP180;3735;50.136;11.062;2022-12-29T04:19:07;97481.00;;;9.40
7389;BMP180;3735;50.136;11.062;2022-12-29T04:21:33;97489.00;;;9.30
7389;BMP180;3735;50.136;11.062;2022-12-29T04:23:59;97484.00;;;9.20
7389;BMP180;3735;50.136;11.062;2022-12-29T04:26:25;97490.00;;;9.20
7389;BMP180;3735;50.136;11.062;2022-12-29T04:28:51;97484.00;;;9.10
7389;BMP180;3735;50.136;11.062;2022-12-29T04:31:17;97479.00;;;9.10
7389;BMP180;3735;50.136;11.062;2022-12-29T04:33:43;97465.00;;;9.10
7389;BMP180;3735;50.136;11.062;2022-12-29T04:36:09;97473.00;;;9.10
7389;BMP180;3735;50.136;11.062;2022-12-29T04:38:34;97466.00;;;9.10
7389;BMP180;3735;50.136;11.062;2022-12-29T04:41:01;97467.00;;;9.20
7389;BMP180;3735;50.136;11.062;2022-12-29T04:43:27;97466.00;;;9.30
7389;BMP180;3735;50.136;11.062;2022-12-29T04:45:54;97463.00;;;9.40
7389;BMP180;3735;50.136;11.062;2022-12-29T04:48:19;97462.00;;;9.40
7389;BMP180;3735;50.136;11.062;2022-12-29T04:50:48;97467.00;;;9.40
7389;BMP180;3735;50.136;11.062;2022-12-29T04:53:16;97454.00;;;9.40
7389;BMP180;3735;50.136;11.062;2022-12-29T04:55:41;97465.00;;;9.30
7389;BMP180;3735;50.136;11.062;2022-12-29T04:58:07;97457.00;;;9.30
7389;BMP180;3735;50.136;11.062;2022-12-29T05:00:33;97457.00;;;9.40
7389;BMP180;3735;50.136;11.062;2022-12-29T05:02:59;97446.00;;;9.50
7389;BMP180;3735;50.136;11.062;2022-12-29T05:05:24;97452.00;;;9.50
7389;BMP180;3735;50.136;11.062;2022-12-29T05:07:50;97452.00;;;9.60
7389;BMP180;3735;50.136;11.062;2022-12-29T05:10:16;97448.00;;;9.70
7389;BMP180;3735;50.136;11.062;2022-12-29T05:12:43;97431.00;;;9.80
7389;BMP180;3735;50.136;11.062;2022-12-29T05:15:10;97444.00;;;9.90
7389;BMP180;3735;50.136;11.062;2022-12-29T05:17:36;97443.00;;;9.90
7389;BMP180;3735;50.136;11.062;2022-12-29T05:20:05;97434.00;;;10.00
7389;BMP180;3735;50.136;11.062;2022-12-29T05:22:31;97426.00;;;10.10
7389;BMP180;3735;50.136;11.062;2022-12-29T05:24:56;97441.00;;;10.20
7389;BMP180;3735;50.136;11.062;2022-12-29T05:27:22;97431.00;;;10.20
7389;BMP180;3735;50.136;11.062;2022-12-29T05:29:48;97424.00;;;10.20
7389;BMP180;3735;50.136;11.062;2022-12-29T05:32:14;97429.00;;;10.20
7389;BMP180;3735;50.136;11.062;2022-12-29T05:34:40;97431.00;;;10.20
7389;BMP180;3735;50.136;11.062;2022-12-29T05:37:05;97424.00;;;10.30
7389;BMP180;3735;50.136;11.062;2022-12-29T05:39:31;97415.00;;;10.30
7389;BMP180;3735;50.136;11.062;2022-12-29T05:41:57;97422.00;;;10.30
7389;BMP180;3735;50.136;11.062;2022-12-29T05:44:23;97417.00;;;10.30
7389;BMP180;3735;50.136;11.062;2022-12-29T05:46:49;97401.00;;;10.30
7389;BMP180;3735;50.136;11.062;2022-12-29T05:49:15;97410.00;;;10.30
7389;BMP180;3735;50.136;11.062;2022-12-29T05:51:41;97417.00;;;10.40
7389;BMP180;3735;50.136;11.062;2022-12-29T05:54:07;97409.00;;;10.40
7389;BMP180;3735;50.136;11.062;2022-12-29T05:56:32;97423.00;;;10.50
7389;BMP180;3735;50.136;11.062;2022-12-29T05:58:58;97407.00;;;10.50
7389;BMP180;3735;50.136;11.062;2022-12-29T06:01:24;97402.00;;;10.50
7389;BMP180;3735;50.136;11.062;2022-12-29T06:03:50;97415.00;;;10.60
7389;BMP180;3735;50.136;11.062;2022-12-29T06:06:15;97423.00;;;10.60
7389;BMP180;3735;50.136;11.062;2022-12-29T06:08:41;97411.00;;;10.50
7389;BMP180;3735;50.136;11.062;2022-12-29T06:11:07;97412.00;;;10.60
7389;BMP180;3735;50.136;11.062;2022-12-29T06:13:33;97409.00;;;10.60
7389;BMP180;3735;50.136;11.062;2022-12-29T06:15:58;97417.00;;;10.60
7389;BMP180;3735;50.136;11.062;2022-12-29T06:18:24;97415.00;;;10.70
7389;BMP180;3735;50.136;11.062;2022-12-29T06:20:50;97426.00;;;10.70
7389;BMP180;3735;50.136;11.062;2022-12-29T06:23:16;97419.00;;;10.60
7389;BMP180;3735;50.136;11.062;2022-12-29T06:25:44;97432.00;;;10.40
7389;BMP180;3735;50.136;11.062;2022-12-29T06:28:09;97436.00;;;10.20
7389;BMP180;3735;50.136;11.062;2022-12-29T06:30:36;97436.00;;;10.10
7389;BMP180;3735;50.136;11.062;2022-12-29T06:33:02;97428.00;;;10.00
7389;BMP180;3735;50.136;11.062;2022-12-29T06:35:28;97431.00;;;9.90
7389;BMP180;3735;50.136;11.062;2022-12-29T06:37:54;97432.00;;;9.80
7389;BMP180;3735;50.136;11.062;2022-12-29T06:40:20;97438.00;;;9.90
7389;BMP180;3735;50.136;11.062;2022-12-29T06:42:47;97421.00;;;10.00
7389;BMP180;3735;50.136;11.062;2022-12-29T06:45:12;97446.00;;;10.10
7389;BMP180;3735;50.136;11.062;2022-12-29T06:47:38;97446.00;;;10.20
7389;BMP180;3735;50.136;11.062;2022-12-29T06:50:05;97430.00;;;10.30
7389;BMP180;3735;50.136;11.062;2022-12-29T06:52:30;97446.00;;;10.40
7389;BMP180;3735;50.136;11.062;2022-12-29T06:54:56;97444.00;;;10.50
7389;BMP180;3735;50.136;11.062;2022-12-29T06:57:22;97444.00;;;10.60
7389;BMP180;3735;50.136;11.062;2022-12-29T06:59:48;97443.00;;;10.50
7389;BMP180;3735;50.136;11.062;2022-12-29T07:02:14;97441.00;;;10.50
7389;BMP180;3735;50.136;11.062;2022-12-29T07:04:42;97444.00;;;10.50
7389;BMP180;3735;50.136;11.062;2022-12-29T07:07:07;97449.00;;;10.60
7389;BMP180;3735;50.136;11.062;2022-12-29T07:09:33;97452.00;;;10.70
7389;BMP180;3735;50.136;11.062;2022-12-29T07:11:59;97433.00;;;10.70
7389;BMP180;3735;50.136;11.062;2022-12-29T07:14:24;97436.00;;;10.80
7389;BMP180;3735;50.136;11.062;2022-12-29T07:16:50;97433.00;;;10.90
7389;BMP180;3735;50.136;11.062;2022-12-29T07:19:16;97440.00;;;10.80
7389;BMP180;3735;50.136;11.062;2022-12-29T07:21:42;97450.00;;;10.70
7389;BMP180;3735;50.136;11.062;2022-12-29T07:24:08;97425.00;;;10.60
7389;BMP180;3735;50.136;11.062;2022-12-29T07:26:34;97449.00;;;10.60
7389;BMP180;3735;50.136;11.062;2022-12-29T07:29:03;97436.00;;;10.50
7389;BMP180;3735;50.136;11.062;2022-12-29T07:31:29;97445.00;;;10.50
7389;BMP180;3735;50.136;11.062;2022-12-29T07:33:55;97428.00;;;10.60
7389;BMP180;3735;50.136;11.062;2022-12-29T07:36:21;97437.00;;;10.70
7389;BMP180;3735;50.136;11.062;2022-12-29T07:38:47;97437.00;;;10.70
7389;BMP180;3735;50.136;11.062;2022-12-29T07:41:12;97406.00;;;10.80
7389;BMP180;3735;50.136;11.062;2022-12-29T07:43:38;97431.00;;;10.80
7389;BMP180;3735;50.136;11.062;2022-12-29T07:46:04;97438.00;;;10.80
7389;BMP180;3735;50.136;11.062;2022-12-29T07:48:30;97436.00;;;10.80
7389;BMP180;3735;50.136;11.062;2022-12-29T07:50:56;97443.00;;;10.80
7389;BMP180;3735;50.136;11.062;2022-12-29T07:53:21;97432.00;;;10.80
7389;BMP180;3735;50.136;11.062;2022-12-29T07:55:47;97442.00;;;10.80
7389;BMP180;3735;50.136;11.062;2022-12-29T07:58:13;97427.00;;;10.80
7389;BMP180;3735;50.136;11.062;2022-12-29T08:00:39;97454.00;;;10.80
7389;BMP180;3735;50.136;11.062;2022-12-29T08:03:05;97459.00;;;10.70
7389;BMP180;3735;50.136;11.062;2022-12-29T08:05:33;97467.00;;;10.50
7389;BMP180;3735;50.136;11.062;2022-12-29T08:07:59;97480.00;;;10.40
7389;BMP180;3735;50.136;11.062;2022-12-29T08:10:25;97475.00;;;10.30
7389;BMP180;3735;50.136;11.062;2022-12-29T08:12:51;97480.00;;;10.30
7389;BMP180;3735;50.136;11.062;2022-12-29T08:15:17;97465.00;;;10.20
7389;BMP180;3735;50.136;11.062;2022-12-29T08:17:43;97483.00;;;10.20
7389;BMP180;3735;50.136;11.062;2022-12-29T08:20:09;97463.00;;;10.00
7389;BMP180;3735;50.136;11.062;2022-12-29T08:22:35;97474.00;;;10.00
7389;BMP180;3735;50.136;11.062;2022-12-29T08:25:02;97467.00;;;10.00
7389;BMP180;3735;50.136;11.062;2022-12-29T08:27:28;97464.00;;;10.00
7389;BMP180;3735;50.136;11.062;2022-12-29T08:29:54;97462.00;;;10.20
7389;BMP180;3735;50.136;11.062;2022-12-29T08:32:19;97471.00;;;10.40
7389;BMP180;3735;50.136;11.062;2022-12-29T08:34:45;97458.00;;;10.50
7389;BMP180;3735;50.136;11.062;2022-12-29T08:37:11;97454.00;;;10.60
7389;BMP180;3735;50.136;11.062;2022-12-29T08:39:37;97453.00;;;10.60
7389;BMP180;3735;50.136;11.062;2022-12-29T08:42:02;97461.00;;;10.70
7389;BMP180;3735;50.136;11.062;2022-12-29T08:44:28;97452.00;;;10.70
7389;BMP180;3735;50.136;11.062;2022-12-29T08:46:54;97458.00;;;10.80
7389;BMP180;3735;50.136;11.062;2022-12-29T08:49:20;97450.00;;;10.80
7389;BMP180;3735;50.136;11.062;2022-12-29T08:51:45;97450.00;;;10.90
7389;BMP180;3735;50.136;11.062;2022-12-29T08:54:11;97448.00;;;10.90
7389;BMP180;3735;50.136;11.062;2022-12-29T08:56:38;97431.00;;;10.90
7389;BMP180;3735;50.136;11.062;2022-12-29T08:59:03;97428.00;;;10.90
7389;BMP180;3735;50.136;11.062;2022-12-29T09:01:29;97426.00;;;11.00
7389;BMP180;3735;50.136;11.062;2022-12-29T09:03:56;97441.00;;;11.10
7389;BMP180;3735;50.136;11.062;2022-12-29T09:06:22;97453.00;;;11.00
7389;BMP180;3735;50.136;11.062;2022-12-29T09:08:48;97441.00;;;11.10
7389;BMP180;3735;50.136;11.062;2022-12-29T09:11:25;97442.00;;;11.30
7389;BMP180;3735;50.136;11.062;2022-12-29T09:13:52;97435.00;;;11.10
7389;BMP180;3735;50.136;11.062;2022-12-29T09:16:21;97461.00;;;10.90
7389;BMP180;3735;50.136;11.062;2022-12-29T09:18:47;97460.00;;;10.70
7389;BMP180;3735;50.136;11.062;2022-12-29T09:21:16;97453.00;;;10.60
7389;BMP180;3735;50.136;11.062;2022-12-29T09:23:42;97479.00;;;10.70
7389;BMP180;3735;50.136;11.062;2022-12-29T09:26:08;97467.00;;;10.80
7389;BMP180;3735;50.136;11.062;2022-12-29T09:28:35;97458.00;;;11.00
7389;BMP180;3735;50.136;11.062;2022-12-29T09:31:01;97448.00;;;11.10
7389;BMP180;3735;50.136;11.062;2022-12-29T09:33:27;97447.00;;;11.20
7389;BMP180;3735;50.136;11.062;2022-12-29T09:35:57;97464.00;;;11.30
7389;BMP180;3735;50.136;11.062;2022-12-29T09:38:24;97458.00;;;11.30
7389;BMP180;3735;50.136;11.062;2022-12-29T09:41:10;97452.00;;;11.40
7389;BMP180;3735;50.136;11.062;2022-12-29T09:44:49;97454.00;;;11.30
7389;BMP180;3735;50.136;11.062;2022-12-29T09:47:20;97454.00;;;11.30
7389;BMP180;3735;50.136;11.062;2022-12-29T09:50:01;97458.00;;;11.30
7389;BMP180;3735;50.136;11.062;2022-12-29T09:52:50;97440.00;;;11.40
7389;BMP180;3735;50.136;11.062;2022-12-29T09:55:33;97468.00;;;11.30
7389;BMP180;3735;50.136;11.062;2022-12-29T10:00:58;97460.00;;;11.40
7389;BMP180;3735;50.136;11.062;2022-12-29T10:04:00;97467.00;;;11.40
7389;BMP180;3735;50.136;11.062;2022-12-29T10:06:57;97455.00;;;11.40
7389;BMP180;3735;50.136;11.062;2022-12-29T10:15:44;97453.00;;;11.50
7389;BMP180;3735;50.136;11.062;2022-12-29T10:23:52;97439.00;;;11.40
7389;BMP180;3735;50.136;11.062;2022-12-29T10:26:23;97434.00;;;11.50
7389;BMP180;3735;50.136;11.062;2022-12-29T10:29:05;97433.00;;;11.50
7389;BMP180;3735;50.136;11.062;2022-12-29T10:31:40;97423.00;;;11.40
7389;BMP180;3735;50.136;11.062;2022-12-29T10:34:51;97439.00;;;11.30
7389;BMP180;3735;50.136;11.062;2022-12-29T10:43:30;97443.00;;;11.30
7389;BMP180;3735;50.136;11.062;2022-12-29T10:46:12;97429.00;;;11.30
7389;BMP180;3735;50.136;11.062;2022-12-29T10:48:38;97433.00;;;11.30
7389;BMP180;3735;50.136;11.062;2022-12-29T10:51:07;97440.00;;;11.20
7389;BMP180;3735;50.136;11.062;2022-12-29T10:53:44;97465.00;;;11.30
7389;BMP180;3735;50.136;11.062;2022-12-29T10:56:42;97432.00;;;11.20
7389;BMP180;3735;50.136;11.062;2022-12-29T10:59:26;97440.00;;;11.30
7389;BMP180;3735;50.136;11.062;2022-12-29T11:07:24;97421.00;;;11.30
7389;BMP180;3735;50.136;11.062;2022-12-29T11:09:52;97428.00;;;11.40
7389;BMP180;3735;50.136;11.062;2022-12-29T11:12:27;97435.00;;;11.30
7389;BMP180;3735;50.136;11.062;2022-12-29T11:22:56;97402.00;;;11.50
7389;BMP180;3735;50.136;11.062;2022-12-29T11:25:22;97412.00;;;11.60
7389;BMP180;3735;50.136;11.062;2022-12-29T11:28:01;97410.00;;;11.80
7389;BMP180;3735;50.136;11.062;2022-12-29T11:30:32;97417.00;;;11.70
7389;BMP180;3735;50.136;11.062;2022-12-29T11:33:02;97413.00;;;11.70
7389;BMP180;3735;50.136;11.062;2022-12-29T11:35:40;97405.00;;;11.60
7389;BMP180;3735;50.136;11.062;2022-12-29T11:38:23;97421.00;;;11.60
7389;BMP180;3735;50.136;11.062;2022-12-29T11:40:50;97428.00;;;11.50
7389;BMP180;3735;50.136;11.062;2022-12-29T11:43:37;97424.00;;;11.60
7389;BMP180;3735;50.136;11.062;2022-12-29T11:46:05;97415.00;;;11.60
7389;BMP180;3735;50.136;11.062;2022-12-29T11:48:41;97427.00;;;11.60
7389;BMP180;3735;50.136;11.062;2022-12-29T11:51:08;97425.00;;;11.80
7389;BMP180;3735;50.136;11.062;2022-12-29T11:53:50;97423.00;;;11.90
7389;BMP180;3735;50.136;11.062;2022-12-29T11:56:40;97430.00;;;11.90
7389;BMP180;3735;50.136;11.062;2022-12-29T12:07:50;97419.00;;;12.10
7389;BMP180;3735;50.136;11.062;2022-12-29T12:10:37;97423.00;;;12.00
7389;BMP180;3735;50.136;11.062;2022-12-29T12:13:18;97429.00;;;12.00
7389;BMP180;3735;50.136;11.062;2022-12-29T12:16:14;97439.00;;;11.90
7389;BMP180;3735;50.136;11.062;2022-12-29T12:18:57;97429.00;;;11.90
7389;BMP180;3735;50.136;11.062;2022-12-29T12:21:40;97423.00;;;11.80
7389;BMP180;3735;50.136;11.062;2022-12-29T12:27:26;97414.00;;;11.80
7389;BMP180;3735;50.136;11.062;2022-12-29T12:30:02;97403.00;;;11.90
7389;BMP180;3735;50.136;11.062;2022-12-29T12:41:13;97409.00;;;12.30
7389;BMP180;3735;50.136;11.062;2022-12-29T12:43:50;97403.00;;;12.30
7389;BMP180;3735;50.136;11.062;2022-12-29T12:58:29;97418.00;;;12.10
7389;BMP180;3735;50.136;11.062;2022-12-29T13:04:32;97419.00;;;11.90
7389;BMP180;3735;50.136;11.062;2022-12-29T13:22:03;97440.00;;;11.40
7389;BMP180;3735;50.136;11.062;2022-12-29T13:38:43;97491.00;;;10.50
7389;BMP180;3735;50.136;11.062;2022-12-29T13:41:25;97502.00;;;10.30
7389;BMP180;3735;50.136;11.062;2022-12-29T13:43:54;97501.00;;;10.10
7389;BMP180;3735;50.136;11.062;2022-12-29T13:46:31;97511.00;;;9.90
7389;BMP180;3735;50.136;11.062;2022-12-29T13:49:18;97515.00;;;9.80
7389;BMP180;3735;50.136;11.062;2022-12-29T13:52:03;97502.00;;;9.80
7389;BMP180;3735;50.136;11.062;2022-12-29T13:58:24;97512.00;;;9.50
7389;BMP180;3735;50.136;11.062;2022-12-29T14:03:54;97502.00;;;9.40
7389;BMP180;3735;50.136;11.062;2022-12-29T14:06:29;97505.00;;;9.40
7389;BMP180;3735;50.136;11.062;2022-12-29T14:09:00;97510.00;;;9.40
7389;BMP180;3735;50.136;11.062;2022-12-29T14:11:38;97516.00;;;9.40
7389;BMP180;3735;50.136;11.062;2022-12-29T14:14:22;97512.00;;;9.40
7389;BMP180;3735;50.136;11.062;2022-12-29T14:16:49;97523.00;;;9.50
7389;BMP180;3735;50.136;11.062;2022-12-29T14:19:27;97523.00;;;9.40
7389;BMP180;3735;50.136;11.062;2022-12-29T14:22:02;97501.00;;;9.40
7389;BMP180;3735;50.136;11.062;2022-12-29T14:24:46;97518.00;;;9.40
7389;BMP180;3735;50.136;11.062;2022-12-29T14:32:37;97523.00;;;9.30
7389;BMP180;3735;50.136;11.062;2022-12-29T14:35:40;97524.00;;;9.30
7389;BMP180;3735;50.136;11.062;2022-12-29T14:38:22;97523.00;;;9.30
7389;BMP180;3735;50.136;11.062;2022-12-29T14:40:50;97529.00;;;9.20
7389;BMP180;3735;50.136;11.062;2022-12-29T14:43:26;97536.00;;;9.20
7389;BMP180;3735;50.136;11.062;2022-12-29T14:46:00;97535.00;;;9.20
7389;BMP180;3735;50.136;11.062;2022-12-29T14:48:37;97536.00;;;9.20
7389;BMP180;3735;50.136;11.062;2022-12-29T14:51:18;97548.00;;;9.20
7389;BMP180;3735;50.136;11.062;2022-12-29T14:53:50;97538.00;;;9.20
7389;BMP180;3735;50.136;11.062;2022-12-29T14:56:26;97536.00;;;9.20
7389;BMP180;3735;50.136;11.062;2022-12-29T14:59:01;97535.00;;;9.10
7389;BMP180;3735;50.136;11.062;2022-12-29T15:01:41;97537.00;;;9.00
7389;BMP180;3735;50.136;11.062;2022-12-29T15:04:20;97526.00;;;8.90
7389;BMP180;3735;50.136;11.062;2022-12-29T15:06:49;97547.00;;;8.80
7389;BMP180;3735;50.136;11.062;2022-12-29T15:11:57;97527.00;;;8.50
7389;BMP180;3735;50.136;11.062;2022-12-29T15:16:54;97527.00;;;8.20
7389;BMP180;3735;50.136;11.062;2022-12-29T15:19:25;97533.00;;;8.10
7389;BMP180;3735;50.136;11.062;2022-12-29T15:21:54;97529.00;;;8.00
7389;BMP180;3735;50.136;11.062;2022-12-29T15:24:20;97542.00;;;7.80
7389;BMP180;3735;50.136;11.062;2022-12-29T15:26:50;97541.00;;;7.70
7389;BMP180;3735;50.136;11.062;2022-12-29T15:29:47;97535.00;;;7.60
7389;BMP180;3735;50.136;11.062;2022-12-29T15:34:47;97536.00;;;7.40
7389;BMP180;3735;50.136;11.062;2022-12-29T15:37:37;97535.00;;;7.20
7389;BMP180;3735;50.136;11.062;2022-12-29T15:40:03;97545.00;;;7.10
7389;BMP180;3735;50.136;11.062;2022-12-29T15:42:50;97540.00;;;7.10
7389;BMP180;3735;50.136;11.062;2022-12-29T15:45:18;97542.00;;;7.00
7389;BMP180;3735;50.136;11.062;2022-12-29T15:47:46;97544.00;;;7.00
7389;BMP180;3735;50.136;11.062;2022-12-29T15:50:30;97560.00;;;7.00
7389;BMP180;3735;50.136;11.062;2022-12-29T15:52:59;97554.00;;;7.00
7389;BMP180;3735;50.136;11.062;2022-12-29T15:55:36;97532.00;;;7.10
7389;BMP180;3735;50.136;11.062;2022-12-29T15:58:15;97559.00;;;7.10
7389;BMP180;3735;50.136;11.062;2022-12-29T16:00:55;97557.00;;;7.10
7389;BMP180;3735;50.136;11.062;2022-12-29T16:03:24;97545.00;;;7.20
7389;BMP180;3735;50.136;11.062;2022-12-29T16:06:07;97551.00;;;7.30
7389;BMP180;3735;50.136;11.062;2022-12-29T16:08:39;97535.00;;;7.40
7389;BMP180;3735;50.136;11.062;2022-12-29T16:11:38;97536.00;;;7.60
7389;BMP180;3735;50.136;11.062;2022-12-29T16:14:23;97552.00;;;7.70
7389;BMP180;3735;50.136;11.062;2022-12-29T16:16:50;97562.00;;;7.90
7389;BMP180;3735;50.136;11.062;2022-12-29T16:19:33;97552.00;;;8.50
7389;BMP180;3735;50.136;11.062;2022-12-29T16:22:01;97551.00;;;9.20
7389;BMP180;3735;50.136;11.062;2022-12-29T16:24:32;97553.00;;;9.40
7389;BMP180;3735;50.136;11.062;2022-12-29T16:27:07;97559.00;;;9.60
7389;BMP180;3735;50.136;11.062;2022-12-29T16:29:36;97552.00;;;9.70
7389;BMP180;3735;50.136;11.062;2022-12-29T16:32:03;97556.00;;;9.80
7389;BMP180;3735;50.136;11.062;2022-12-29T16:34:47;97568.00;;;9.70
7389;BMP180;3735;50.136;11.062;2022-12-29T16:37:39;97577.00;;;9.60
7389;BMP180;3735;50.136;11.062;2022-12-29T16:50:33;97588.00;;;8.90
7389;BMP180;3735;50.136;11.062;2022-12-29T16:52:59;97586.00;;;8.80
7389;BMP180;3735;50.136;11.062;2022-12-29T16:55:25;97595.00;;;8.80
7389;BMP180;3735;50.136;11.062;2022-12-29T16:57:54;97586.00;;;8.80
7389;BMP180;3735;50.136;11.062;2022-12-29T17:00:26;97580.00;;;8.70
7389;BMP180;3735;50.136;11.062;2022-12-29T17:02:57;97573.00;;;8.70
7389;BMP180;3735;50.136;11.062;2022-12-29T17:05:24;97579.00;;;8.70
7389;BMP180;3735;50.136;11.062;2022-12-29T17:07:51;97579.00;;;8.60
7389;BMP180;3735;50.136;11.062;2022-12-29T17:10:18;97583.00;;;8.60
7389;BMP180;3735;50.136;11.062;2022-12-29T17:12:47;97582.00;;;8.60
7389;BMP180;3735;50.136;11.062;2022-12-29T17:15:33;97586.00;;;8.60
7389;BMP180;3735;50.136;11.062;2022-12-29T17:18:00;97571.00;;;8.60
7389;BMP180;3735;50.136;11.062;2022-12-29T17:20:31;97578.00;;;8.60
7389;BMP180;3735;50.136;11.062;2022-12-29T17:23:00;97581.00;;;8.60
7389;BMP180;3735;50.136;11.062;2022-12-29T17:25:32;97588.00;;;8.70
7389;BMP180;3735;50.136;11.062;2022-12-29T17:28:29;97591.00;;;8.60
7389;BMP180;3735;50.136;11.062;2022-12-29T17:31:01;97593.00;;;8.60
7389;BMP180;3735;50.136;11.062;2022-12-29T17:33:30;97599.00;;;8.60
7389;BMP180;3735;50.136;11.062;2022-12-29T17:36:00;97604.00;;;8.70
7389;BMP180;3735;50.136;11.062;2022-12-29T17:38:30;97606.00;;;8.60
7389;BMP180;3735;50.136;11.062;2022-12-29T17:40:57;97615.00;;;8.60